Time;durP1;ratioP1;P1;durP2;ratioP2;P2;SDS_P1;SDS_P2;PMS_P1;PMS_P2;Temp;Humidity;BMP_temperature;BMP_pressure;BME280_temperature;BME280_humidity;BME280_pressure;Samples;Min_cycle;Max_cycle;Signal;HPM_P1;HPM_P2
2022/04/28 00:01:40;;;;;;;8.82;8.23;;;9.90;99.90;;;;;;5030722;28;20407;-85
2022/04/28 00:04:05;;;;;;;8.30;7.70;;;10.00;99.90;;;;;;5031819;28;20387;-85
2022/04/28 00:06:31;;;;;;;9.18;8.55;;;9.90;99.90;;;;;;5020383;28;20387;-85
2022/04/28 00:08:57;;;;;;;9.35;8.65;;;10.40;99.90;;;;;;5035688;28;20448;-85
2022/04/28 00:11:22;;;;;;;9.07;8.38;;;9.80;99.90;;;;;;5035572;28;20387;-85
2022/04/28 00:13:48;;;;;;;9.05;8.45;;;9.90;99.90;;;;;;5035512;28;20864;-85
2022/04/28 00:16:14;;;;;;;8.93;8.32;;;10.10;99.90;;;;;;5035680;28;20823;-85
2022/04/28 00:18:39;;;;;;;9.10;8.50;;;9.90;99.90;;;;;;5035908;28;20387;-85
2022/04/28 00:21:05;;;;;;;8.70;8.10;;;10.20;99.90;;;;;;5035259;28;20413;-85
2022/04/28 00:23:30;;;;;;;8.90;8.30;;;10.40;99.90;;;;;;5028458;28;20381;-85
2022/04/28 00:25:56;;;;;;;9.17;8.37;;;9.80;99.90;;;;;;5027411;28;20379;-86
2022/04/28 00:28:21;;;;;;;9.20;8.50;;;10.20;99.90;;;;;;5035527;28;20390;-85
2022/04/28 00:30:47;;;;;;;9.63;8.93;;;9.80;99.90;;;;;;5035305;28;20386;-85
2022/04/28 00:33:13;;;;;;;10.03;9.23;;;9.80;99.90;;;;;;5035249;28;20424;-85
2022/04/28 00:35:38;;;;;;;10.07;9.33;;;9.80;99.90;;;;;;5031528;28;20390;-85
2022/04/28 00:38:04;;;;;;;10.03;9.30;;;9.70;99.90;;;;;;5021198;28;20389;-85
2022/04/28 00:40:30;;;;;;;9.57;8.87;;;9.80;99.90;;;;;;5035116;28;20390;-85
2022/04/28 00:43:18;;;;;;;10.27;9.47;;;9.70;99.90;;;;;;5029400;28;20433;-85
2022/04/28 00:45:41;;;;;;;9.52;8.80;;;9.70;99.90;;;;;;5010729;28;20402;-85
2022/04/28 00:50:53;;;;;;;10.32;9.63;;;9.60;99.90;;;;;;5020624;28;20472;-85
2022/04/28 00:53:19;;;;;;;10.23;9.43;;;9.50;99.90;;;;;;5029432;28;20458;-85
2022/04/28 00:55:45;;;;;;;10.23;9.43;;;9.60;99.90;;;;;;5033814;28;20409;-86
2022/04/28 00:58:11;;;;;;;10.52;9.77;;;9.60;99.90;;;;;;5033693;28;20935;-85
2022/04/28 01:00:40;;;;;;;10.00;9.30;;;9.50;99.90;;;;;;5034650;28;20479;-86
2022/04/28 01:03:06;;;;;;;10.77;9.98;;;9.50;99.90;;;;;;5034603;28;20418;-85
2022/04/28 01:05:32;;;;;;;11.45;10.65;;;9.40;99.90;;;;;;5022713;28;20472;-85
2022/04/28 01:07:58;;;;;;;11.45;10.65;;;9.40;99.90;;;;;;5012225;28;20381;-86
2022/04/28 01:10:24;;;;;;;11.40;10.63;;;9.40;99.90;;;;;;5017508;28;20472;-85
2022/04/28 01:12:50;;;;;;;11.90;11.00;;;10.00;99.90;;;;;;5034836;28;20759;-85
2022/04/28 01:15:15;;;;;;;12.57;11.48;;;9.80;99.90;;;;;;5034549;28;20437;-85
2022/04/28 01:17:41;;;;;;;11.43;10.55;;;9.70;99.90;;;;;;5032109;28;20482;-85
2022/04/28 01:20:07;;;;;;;11.50;10.70;;;9.50;99.90;;;;;;5034524;28;20863;-84
2022/04/28 01:22:33;;;;;;;11.63;10.77;;;9.60;99.90;;;;;;5034231;28;20411;-85
2022/04/28 01:25:08;;;;;;;11.27;10.47;;;9.80;99.90;;;;;;5034218;28;20383;-85
2022/04/28 01:27:38;;;;;;;11.63;10.82;;;9.70;99.90;;;;;;5033424;28;20533;-84
2022/04/28 01:30:14;;;;;;;11.77;10.98;;;9.90;99.90;;;;;;5032925;28;20384;-85
2022/04/28 01:32:40;;;;;;;11.43;10.63;;;9.50;99.90;;;;;;5021395;28;20468;-85
2022/04/28 01:35:06;;;;;;;12.60;11.70;;;9.40;99.90;;;;;;5029182;28;20510;-85
2022/04/28 01:37:32;;;;;;;11.82;10.93;;;9.30;99.90;;;;;;5034000;28;20944;-86
2022/04/28 01:39:57;;;;;;;11.97;11.07;;;9.30;99.90;;;;;;5032984;28;20410;-85
2022/04/28 01:42:24;;;;;;;11.87;10.97;;;9.30;99.90;;;;;;5034276;28;20407;-85
2022/04/28 01:44:50;;;;;;;12.68;11.60;;;9.40;99.90;;;;;;5033902;28;20398;-85
2022/04/28 01:47:16;;;;;;;12.50;11.57;;;9.10;99.90;;;;;;5034077;28;20379;-85
2022/04/28 01:49:41;;;;;;;11.95;11.07;;;9.10;99.90;;;;;;5026690;28;20468;-86
2022/04/28 01:54:57;;;;;;;12.75;11.85;;;9.00;99.90;;;;;;5020971;28;20427;-85
2022/04/28 01:57:24;;;;;;;13.13;12.23;;;9.50;99.90;;;;;;5003080;28;20478;-86
2022/04/28 01:59:51;;;;;;;12.85;11.95;;;9.90;99.90;;;;;;5016074;28;20913;-85
2022/04/28 02:02:16;;;;;;;12.93;11.93;;;9.10;99.90;;;;;;5018893;28;20450;-85
2022/04/28 02:04:42;;;;;;;13.30;12.23;;;9.10;99.90;;;;;;5026863;28;20930;-85
2022/04/28 02:07:08;;;;;;;13.02;12.10;;;9.00;99.90;;;;;;5023320;28;20433;-85
2022/04/28 02:09:33;;;;;;;14.27;13.18;;;9.40;99.90;;;;;;5032294;28;20812;-85
2022/04/28 02:11:59;;;;;;;13.63;12.63;;;9.30;99.90;;;;;;5033675;28;20448;-85
2022/04/28 02:14:25;;;;;;;13.50;12.43;;;9.00;99.90;;;;;;5032734;28;20387;-85
2022/04/28 02:16:50;;;;;;;13.95;12.90;;;8.80;99.90;;;;;;5033211;28;20402;-85
2022/04/28 02:19:16;;;;;;;13.18;12.07;;;8.80;99.90;;;;;;5033381;28;20383;-86
2022/04/28 02:21:42;;;;;;;14.17;13.17;;;8.90;99.90;;;;;;5033196;28;20403;-85
2022/04/28 02:24:08;;;;;;;13.32;12.32;;;9.50;99.90;;;;;;5033472;28;20448;-85
2022/04/28 02:26:34;;;;;;;13.67;12.67;;;8.90;99.90;;;;;;5032237;28;20470;-85
2022/04/28 02:28:59;;;;;;;13.57;12.57;;;8.90;99.90;;;;;;5033376;28;20383;-86
2022/04/28 02:31:25;;;;;;;13.85;12.85;;;9.40;99.90;;;;;;5033220;28;20390;-85
2022/04/28 02:33:51;;;;;;;14.73;13.40;;;9.50;99.90;;;;;;5033263;28;21012;-85
2022/04/28 02:36:16;;;;;;;13.85;12.80;;;9.00;99.90;;;;;;5029340;28;20398;-85
2022/04/28 02:38:42;;;;;;;14.25;13.15;;;9.20;99.90;;;;;;5033105;28;20466;-85
2022/04/28 02:41:08;;;;;;;15.07;13.88;;;9.30;99.90;;;;;;5020941;28;20400;-85
2022/04/28 02:43:34;;;;;;;14.02;13.02;;;8.90;99.90;;;;;;5030123;28;20947;-85
2022/04/28 02:45:59;;;;;;;14.77;13.67;;;9.10;99.90;;;;;;5032955;28;20393;-85
2022/04/28 02:48:25;;;;;;;14.90;13.70;;;9.30;99.90;;;;;;5032851;28;20462;-85
2022/04/28 02:50:52;;;;;;;14.38;13.38;;;8.80;99.90;;;;;;5022926;28;20460;-85
2022/04/28 02:53:17;;;;;;;14.65;13.55;;;8.80;99.90;;;;;;5032716;28;20394;-85
2022/04/28 02:55:43;;;;;;;14.53;13.33;;;8.70;99.90;;;;;;5031508;28;20873;-86
2022/04/28 02:58:09;;;;;;;14.77;13.67;;;8.80;99.90;;;;;;5031275;28;20760;-85
2022/04/28 03:00:38;;;;;;;13.98;12.98;;;8.70;99.90;;;;;;5019177;28;20452;-85
2022/04/28 03:03:05;;;;;;;14.60;13.48;;;8.80;99.90;;;;;;5020960;28;20408;-85
2022/04/28 03:05:30;;;;;;;14.57;13.48;;;9.10;99.90;;;;;;5014534;28;20385;-85
2022/04/28 03:10:49;;;;;;;15.02;13.93;;;8.90;99.90;;;;;;5032565;28;20382;-85
2022/04/28 03:13:17;;;;;;;14.73;13.52;;;8.80;99.90;;;;;;5030268;28;20394;-85
2022/04/28 03:15:45;;;;;;;15.57;14.38;;;8.80;99.90;;;;;;5025886;28;20882;-86
2022/04/28 03:18:12;;;;;;;14.53;13.50;;;8.90;99.90;;;;;;5032368;28;20394;-85
2022/04/28 03:20:37;;;;;;;15.37;14.27;;;8.90;99.90;;;;;;5032214;28;20402;-85
2022/04/28 03:23:03;;;;;;;15.50;14.20;;;8.90;99.90;;;;;;5032629;28;20410;-85
2022/04/28 03:25:29;;;;;;;15.30;14.15;;;8.90;99.90;;;;;;5032302;28;20384;-85
2022/04/28 03:27:56;;;;;;;15.55;14.35;;;8.80;99.90;;;;;;5032343;28;20395;-86
2022/04/28 03:30:22;;;;;;;15.75;14.55;;;9.10;99.90;;;;;;5025702;28;20817;-85
2022/04/28 03:32:48;;;;;;;16.03;14.73;;;8.80;99.90;;;;;;5013189;28;20786;-85
2022/04/28 03:35:14;;;;;;;16.33;15.03;;;8.70;99.90;;;;;;5028289;28;20395;-85
2022/04/28 03:37:40;;;;;;;17.90;16.40;;;8.80;99.90;;;;;;5032138;28;20856;-85
2022/04/28 03:40:06;;;;;;;18.83;17.33;;;8.70;99.90;;;;;;5032314;28;20442;-85
2022/04/28 03:42:33;;;;;;;18.17;16.67;;;8.70;99.90;;;;;;5035637;28;20494;-85
2022/04/28 03:44:58;;;;;;;18.67;17.10;;;8.70;99.90;;;;;;5036162;28;20902;-85
2022/04/28 03:47:24;;;;;;;17.80;16.30;;;8.80;99.90;;;;;;5036292;28;20382;-85
2022/04/28 03:49:50;;;;;;;18.37;16.77;;;8.80;99.90;;;;;;5027824;28;20406;-85
2022/04/28 03:52:15;;;;;;;19.23;17.50;;;8.80;99.90;;;;;;5016814;28;20510;-85
2022/04/28 03:54:41;;;;;;;18.97;17.27;;;8.90;99.90;;;;;;5019777;28;20472;-85
2022/04/28 03:57:06;;;;;;;18.77;17.25;;;8.80;99.90;;;;;;5025941;28;20383;-85
2022/04/28 03:59:32;;;;;;;19.08;17.45;;;9.30;99.90;;;;;;5035598;28;20399;-85
2022/04/28 04:01:58;;;;;;;19.23;17.63;;;8.90;99.90;;;;;;5021153;28;20607;-86
2022/04/28 04:04:24;;;;;;;20.67;18.93;;;8.80;99.90;;;;;;5029146;28;20384;-84
2022/04/28 04:06:49;;;;;;;20.50;18.57;;;8.90;99.90;;;;;;5024949;28;20391;-85
2022/04/28 04:09:15;;;;;;;20.70;18.90;;;8.90;99.90;;;;;;5021877;28;20749;-85
2022/04/28 04:11:41;;;;;;;21.33;19.40;;;8.90;99.90;;;;;;5035821;28;20825;-85
2022/04/28 04:14:06;;;;;;;21.37;19.37;;;8.90;99.90;;;;;;5035710;28;20390;-85
2022/04/28 04:16:32;;;;;;;21.00;19.20;;;8.90;99.90;;;;;;5035586;28;20398;-85
2022/04/28 04:18:57;;;;;;;20.90;19.10;;;8.80;99.90;;;;;;5035660;28;20395;-85
2022/04/28 04:21:23;;;;;;;21.00;19.10;;;8.70;99.90;;;;;;5021370;28;20490;-86
2022/04/28 04:23:49;;;;;;;21.57;19.67;;;8.60;99.90;;;;;;5035610;28;20843;-85
2022/04/28 04:26:15;;;;;;;20.88;19.08;;;8.60;99.90;;;;;;5035558;28;20390;-85
2022/04/28 04:28:40;;;;;;;21.33;19.43;;;8.50;99.90;;;;;;5035466;28;20380;-85
2022/04/28 04:33:50;;;;;;;22.95;20.65;;;8.70;99.90;;;;;;5035338;28;20374;-85
2022/04/28 04:36:16;;;;;;;23.93;21.73;;;8.90;99.90;;;;;;5035080;28;20471;-86
2022/04/28 04:38:41;;;;;;;23.45;21.27;;;9.00;99.90;;;;;;5035547;28;20744;-85
2022/04/28 04:41:10;;;;;;;23.55;21.27;;;9.20;99.90;;;;;;5035061;28;20795;-85
2022/04/28 04:43:37;;;;;;;23.42;21.27;;;9.00;99.90;;;;;;5035055;28;20387;-85
2022/04/28 04:46:02;;;;;;;23.88;21.67;;;9.00;99.90;;;;;;5035207;28;20383;-85
2022/04/28 04:48:28;;;;;;;24.23;21.75;;;8.90;99.90;;;;;;5034995;28;20864;-85
2022/04/28 04:50:55;;;;;;;23.83;21.60;;;8.80;99.90;;;;;;5025007;28;20390;-85
2022/04/28 04:53:20;;;;;;;23.95;21.75;;;8.80;99.90;;;;;;5029852;28;20436;-85
2022/04/28 04:55:46;;;;;;;24.20;21.98;;;8.80;99.90;;;;;;5035032;28;20470;-85
2022/04/28 04:58:12;;;;;;;23.17;20.98;;;9.20;99.90;;;;;;5034793;28;20402;-86
2022/04/28 05:00:37;;;;;;;22.67;20.58;;;9.50;99.90;;;;;;5016237;28;20388;-85
2022/04/28 05:03:03;;;;;;;22.20;20.23;;;8.80;99.90;;;;;;5025547;28;20918;-84
2022/04/28 05:05:28;;;;;;;21.83;19.92;;;9.00;99.90;;;;;;5034766;28;20396;-84
2022/04/28 05:07:54;;;;;;;22.58;20.58;;;9.00;99.90;;;;;;5033295;28;20384;-84
2022/04/28 05:10:20;;;;;;;22.30;20.30;;;8.90;99.90;;;;;;5034776;28;20388;-84
2022/04/28 05:12:45;;;;;;;22.30;20.35;;;8.90;99.90;;;;;;5030093;28;20399;-84
2022/04/28 05:15:12;;;;;;;21.95;19.95;;;8.80;99.90;;;;;;5017256;28;20902;-84
2022/04/28 05:17:38;;;;;;;22.10;20.10;;;8.70;99.90;;;;;;5017197;28;20730;-84
2022/04/28 05:20:05;;;;;;;21.08;19.27;;;8.70;99.90;;;;;;5034571;28;20426;-85
2022/04/28 05:22:31;;;;;;;22.30;20.17;;;8.90;99.90;;;;;;5034322;28;20402;-84
2022/04/28 05:24:57;;;;;;;21.90;20.00;;;8.90;99.90;;;;;;5034355;28;20470;-83
2022/04/28 05:27:22;;;;;;;22.42;20.33;;;9.00;99.90;;;;;;5034926;28;20497;-83
2022/04/28 05:29:48;;;;;;;23.02;20.92;;;9.10;99.90;;;;;;5034525;28;20842;-85
2022/04/28 05:32:14;;;;;;;22.58;20.58;;;8.90;99.90;;;;;;5025413;28;20395;-85
2022/04/28 05:34:39;;;;;;;23.50;21.25;;;8.90;99.90;;;;;;5029367;28;20435;-85
2022/04/28 05:37:06;;;;;;;24.70;22.40;;;9.00;99.90;;;;;;5033102;28;20391;-85
2022/04/28 05:39:32;;;;;;;23.67;21.48;;;8.90;99.90;;;;;;5027264;28;20445;-86
2022/04/28 05:41:57;;;;;;;23.52;21.42;;;8.80;99.90;;;;;;5032259;28;20915;-86
2022/04/28 05:47:08;;;;;;;26.45;23.75;;;9.40;99.90;;;;;;5033974;28;20398;-85
2022/04/28 05:49:33;;;;;;;23.80;21.30;;;9.00;99.90;;;;;;5027817;28;20389;-85
2022/04/28 05:52:00;;;;;;;23.55;21.27;;;9.30;99.90;;;;;;5031424;28;20910;-85
2022/04/28 05:54:26;;;;;;;24.33;22.08;;;9.20;99.90;;;;;;5033827;28;20413;-85
2022/04/28 05:56:51;;;;;;;24.37;22.13;;;9.40;99.90;;;;;;5033847;28;20868;-85
2022/04/28 05:59:17;;;;;;;23.80;21.60;;;9.30;99.90;;;;;;5023130;28;20424;-85
2022/04/28 06:01:43;;;;;;;22.95;20.85;;;9.60;99.90;;;;;;5033587;28;20434;-86
2022/04/28 06:04:09;;;;;;;24.20;21.90;;;10.30;99.90;;;;;;5033022;28;20379;-86
2022/04/28 06:06:36;;;;;;;24.15;21.92;;;9.30;99.90;;;;;;5032277;28;20387;-86
2022/04/28 06:09:02;;;;;;;24.17;21.77;;;9.20;99.90;;;;;;5032372;28;20768;-85
2022/04/28 06:11:28;;;;;;;24.90;22.50;;;9.60;99.90;;;;;;5017209;28;20483;-86
2022/04/28 06:13:54;;;;;;;23.10;21.03;;;9.50;99.90;;;;;;5015440;28;20451;-85
2022/04/28 06:16:19;;;;;;;25.48;22.88;;;9.20;99.90;;;;;;5031539;28;20386;-84
2022/04/28 06:18:45;;;;;;;22.40;20.40;;;9.30;99.90;;;;;;5033414;28;20453;-86
2022/04/28 06:21:11;;;;;;;23.33;21.15;;;9.60;99.90;;;;;;5030593;28;20470;-85
2022/04/28 06:23:37;;;;;;;23.13;20.95;;;9.50;99.90;;;;;;5008396;28;20909;-86
2022/04/28 06:26:02;;;;;;;21.73;19.80;;;9.50;99.90;;;;;;5006978;28;20437;-85
2022/04/28 06:28:28;;;;;;;21.30;19.45;;;9.60;99.90;;;;;;5012998;28;20391;-87
2022/04/28 06:30:54;;;;;;;20.40;18.60;;;9.70;99.90;;;;;;5006703;28;20472;-85
2022/04/28 06:33:20;;;;;;;21.77;19.77;;;9.80;99.90;;;;;;5029380;28;20470;-86
2022/04/28 06:35:46;;;;;;;21.40;19.30;;;10.00;99.90;;;;;;5017786;28;20441;-87
2022/04/28 06:38:12;;;;;;;20.25;18.45;;;10.00;99.90;;;;;;5030797;28;20391;-87
2022/04/28 06:40:38;;;;;;;20.52;18.73;;;10.00;99.90;;;;;;5033349;28;20449;-89
2022/04/28 06:43:04;;;;;;;19.40;17.80;;;10.10;99.90;;;;;;5026876;28;20411;-88
2022/04/28 06:45:30;;;;;;;17.33;15.93;;;10.20;99.90;;;;;;5032114;28;20434;-87
2022/04/28 06:47:56;;;;;;;18.15;16.65;;;10.40;99.90;;;;;;5025096;28;20404;-87
2022/04/28 06:50:21;;;;;;;18.40;16.73;;;10.50;99.90;;;;;;5024377;28;20387;-88
2022/04/28 06:52:47;;;;;;;18.00;16.40;;;10.60;99.90;;;;;;5016054;28;20433;-87
2022/04/28 06:55:13;;;;;;;16.83;15.43;;;10.60;99.90;;;;;;5028989;28;20387;-87
2022/04/28 06:57:39;;;;;;;16.43;15.13;;;10.70;99.90;;;;;;5032613;28;20395;-86
2022/04/28 07:00:07;;;;;;;16.48;15.02;;;10.70;99.90;;;;;;5032772;28;20383;-88
2022/04/28 07:02:33;;;;;;;17.10;15.70;;;10.70;99.90;;;;;;5011462;28;20411;-88
2022/04/28 07:04:58;;;;;;;16.83;15.48;;;10.80;99.90;;;;;;5032216;28;20398;-88
2022/04/28 07:07:24;;;;;;;16.10;14.70;;;10.80;99.90;;;;;;5026709;28;20718;-88
2022/04/28 07:09:50;;;;;;;15.10;14.00;;;10.80;99.90;;;;;;5017947;28;21018;-88
2022/04/28 07:12:16;;;;;;;14.90;13.80;;;11.00;99.90;;;;;;5032889;28;20391;-89
2022/04/28 07:14:43;;;;;;;15.77;14.57;;;10.90;99.90;;;;;;5032347;28;20419;-88
2022/04/28 07:17:09;;;;;;;14.90;13.80;;;11.10;99.90;;;;;;5031771;28;20434;-86
2022/04/28 07:19:35;;;;;;;15.25;14.05;;;11.10;99.90;;;;;;5019055;28;20391;-86
2022/04/28 07:22:04;;;;;;;14.82;13.70;;;11.20;99.90;;;;;;5020963;28;20845;-87
2022/04/28 07:24:33;;;;;;;15.13;13.83;;;11.20;99.90;;;;;;5032592;28;20434;-89
2022/04/28 07:26:59;;;;;;;12.95;11.95;;;11.30;99.90;;;;;;5032033;28;20422;-88
2022/04/28 07:29:25;;;;;;;12.73;11.83;;;11.60;99.90;;;;;;5027616;28;20420;-87
2022/04/28 07:31:51;;;;;;;11.75;10.95;;;11.60;99.90;;;;;;5018218;28;20490;-87
2022/04/28 07:34:17;;;;;;;12.10;11.10;;;11.60;99.90;;;;;;5032240;28;20486;-88
2022/04/28 07:36:42;;;;;;;11.57;10.57;;;11.80;99.90;;;;;;5028386;28;20493;-88
2022/04/28 07:39:08;;;;;;;11.13;10.23;;;11.80;99.90;;;;;;5017803;28;20401;-88
2022/04/28 07:41:33;;;;;;;10.73;9.93;;;11.90;99.90;;;;;;5027768;28;20403;-88
2022/04/28 07:43:59;;;;;;;10.60;9.80;;;11.90;99.90;;;;;;5032479;28;20446;-88
2022/04/28 07:46:25;;;;;;;9.93;9.18;;;11.90;99.90;;;;;;5019064;28;20389;-88
2022/04/28 07:48:50;;;;;;;10.50;9.70;;;12.10;99.90;;;;;;5018480;28;20388;-88
2022/04/28 07:51:16;;;;;;;9.75;8.98;;;12.10;99.90;;;;;;5024234;28;20470;-88
2022/04/28 07:53:41;;;;;;;10.27;9.40;;;12.20;99.90;;;;;;5030287;28;20890;-88
2022/04/28 07:56:18;;;;;;;9.20;8.50;;;12.20;99.90;;;;;;5021602;28;20390;-88
2022/04/28 07:58:45;;;;;;;9.40;8.70;;;12.40;99.90;;;;;;5018421;28;20877;-87
2022/04/28 08:01:12;;;;;;;9.43;8.73;;;12.40;99.90;;;;;;5031846;28;20383;-87
2022/04/28 08:03:39;;;;;;;9.23;8.60;;;12.50;99.90;;;;;;5027902;28;20449;-87
2022/04/28 08:06:05;;;;;;;9.25;8.55;;;12.60;99.90;;;;;;5031812;28;20912;-86
2022/04/28 08:08:30;;;;;;;9.10;8.35;;;12.70;99.90;;;;;;5031996;28;20394;-88
2022/04/28 08:10:56;;;;;;;9.23;8.53;;;12.60;99.90;;;;;;5031860;28;20387;-86
2022/04/28 08:13:22;;;;;;;9.30;8.60;;;12.70;99.90;;;;;;5031922;28;20741;-87
2022/04/28 08:15:48;;;;;;;8.40;7.78;;;12.70;99.90;;;;;;5031642;28;20391;-89
2022/04/28 08:18:13;;;;;;;8.73;8.13;;;12.80;99.90;;;;;;5028020;28;20873;-88
2022/04/28 08:20:40;;;;;;;8.10;7.50;;;12.90;99.90;;;;;;5031779;28;20394;-88
2022/04/28 08:23:06;;;;;;;8.68;8.07;;;13.00;99.90;;;;;;5019077;28;20403;-88
2022/04/28 08:25:32;;;;;;;8.70;8.10;;;13.20;99.90;;;;;;5031688;28;20379;-88
2022/04/28 08:27:57;;;;;;;8.57;8.05;;;13.30;99.90;;;;;;5032585;28;20903;-88
2022/04/28 08:30:23;;;;;;;9.23;8.57;;;13.30;99.90;;;;;;5035412;28;20387;-88
2022/04/28 08:32:49;;;;;;;9.48;8.73;;;13.40;99.90;;;;;;5035361;28;20383;-88
2022/04/28 08:35:15;;;;;;;8.43;7.72;;;13.50;99.90;;;;;;5035087;28;20506;-87
2022/04/28 08:37:40;;;;;;;9.50;8.70;;;13.50;99.90;;;;;;5035342;28;20424;-88
2022/04/28 08:40:07;;;;;;;9.47;8.87;;;13.60;99.90;;;;;;5035098;28;20402;-88
2022/04/28 08:42:38;;;;;;;9.20;8.60;;;13.70;99.90;;;;;;5035142;28;20415;-88
2022/04/28 08:45:04;;;;;;;8.73;8.02;;;13.80;99.90;;;;;;5020546;28;20424;-87
2022/04/28 08:47:32;;;;;;;8.45;7.85;;;13.90;99.90;;;;;;5028847;28;20388;-88
2022/04/28 08:49:57;;;;;;;7.78;7.13;;;13.90;99.90;;;;;;5016000;28;20747;-87
2022/04/28 08:52:25;;;;;;;8.02;7.43;;;14.00;99.90;;;;;;5035032;28;20521;-88
2022/04/28 08:54:53;;;;;;;8.27;7.68;;;14.00;99.90;;;;;;5034932;28;20474;-87
2022/04/28 08:57:20;;;;;;;6.38;5.90;;;14.00;99.90;;;;;;5034794;28;20933;-88
2022/04/28 08:59:48;;;;;;;6.95;6.45;;;14.20;99.90;;;;;;5034517;28;20417;-87
2022/04/28 09:02:14;;;;;;;6.65;6.10;;;14.40;99.90;;;;;;5034629;28;20457;-88
2022/04/28 09:04:40;;;;;;;6.68;6.18;;;14.40;99.90;;;;;;5034874;28;20387;-88
2022/04/28 09:07:08;;;;;;;5.72;5.22;;;14.60;99.90;;;;;;5022754;28;20924;-89
2022/04/28 09:09:34;;;;;;;5.60;5.18;;;14.70;99.90;;;;;;5033125;28;20391;-89
2022/04/28 09:12:03;;;;;;;5.10;4.70;;;14.70;99.90;;;;;;5034682;28;20391;-90
2022/04/28 09:14:30;;;;;;;5.32;4.93;;;14.90;99.90;;;;;;5034500;28;20418;-90
2022/04/28 09:17:04;;;;;;;5.15;4.75;;;15.00;99.90;;;;;;5025607;28;20393;-90
2022/04/28 09:19:38;;;;;;;4.90;4.60;;;14.90;99.90;;;;;;5030839;28;20391;-90
2022/04/28 09:22:10;;;;;;;5.45;5.00;;;15.00;99.90;;;;;;5030324;28;20411;-89
2022/04/28 09:24:37;;;;;;;5.07;4.68;;;15.10;99.90;;;;;;5034449;28;20386;-90
2022/04/28 09:27:03;;;;;;;5.20;4.80;;;15.20;99.90;;;;;;5028090;28;20405;-89
2022/04/28 09:29:33;;;;;;;5.00;4.60;;;15.20;99.90;;;;;;5016509;28;20464;-90
2022/04/28 09:31:59;;;;;;;4.65;4.22;;;15.20;99.90;;;;;;5034589;28;20387;-90
2022/04/28 09:34:25;;;;;;;4.57;4.28;;;15.50;99.90;;;;;;5034389;28;20865;-90
2022/04/28 09:36:51;;;;;;;4.75;4.35;;;15.60;99.90;;;;;;5015343;28;20443;-90
2022/04/28 09:44:54;;;;;;;4.40;4.00;;;15.90;99.90;;;;;;5020198;28;20431;-90
2022/04/28 09:47:21;;;;;;;4.50;4.10;;;15.90;99.90;;;;;;5034438;28;20791;-91
2022/04/28 09:49:52;;;;;;;3.53;3.33;;;16.00;99.90;;;;;;5020681;28;20443;-91
2022/04/28 09:52:19;;;;;;;3.53;3.33;;;16.10;99.90;;;;;;5007129;28;20410;-90
2022/04/28 09:54:47;;;;;;;3.50;3.20;;;16.20;99.90;;;;;;5022184;28;20480;-90
2022/04/28 09:57:13;;;;;;;4.20;3.80;;;16.40;99.90;;;;;;5032945;28;20387;-91
2022/04/28 09:59:40;;;;;;;3.55;3.35;;;16.40;99.90;;;;;;5033796;28;20411;-90
2022/04/28 10:02:13;;;;;;;3.70;3.47;;;16.40;99.90;;;;;;5031239;28;20416;-91
2022/04/28 10:04:41;;;;;;;3.80;3.50;;;16.70;99.90;;;;;;5020169;28;20399;-90
2022/04/28 10:07:07;;;;;;;4.03;2.90;;;16.80;99.90;;;;;;5020869;28;20389;-91
2022/04/28 10:09:34;;;;;;;2.80;2.60;;;16.80;99.90;;;;;;5032574;28;20831;-92
2022/04/28 10:12:00;;;;;;;2.95;2.75;;;16.80;99.90;;;;;;5023572;28;20442;-91
2022/04/28 10:14:27;;;;;;;3.50;3.20;;;16.70;99.90;;;;;;5028395;28;20779;-90
2022/04/28 10:16:54;;;;;;;2.88;2.60;;;16.60;99.90;;;;;;5022750;28;20398;-91
2022/04/28 10:19:25;;;;;;;3.00;2.80;;;16.80;99.90;;;;;;5034651;28;20431;-90
2022/04/28 10:21:56;;;;;;;3.05;2.80;;;17.10;99.90;;;;;;5039533;28;20411;-90
2022/04/28 10:32:58;;;;;;;3.10;2.90;;;17.40;99.90;;;;;;5028781;28;20386;-90
2022/04/28 10:35:39;;;;;;;2.72;2.53;;;17.40;99.90;;;;;;5027113;28;20750;-91
2022/04/28 10:38:23;;;;;;;2.60;2.40;;;17.60;99.90;;;;;;5027169;28;20387;-91
2022/04/28 10:41:02;;;;;;;3.38;3.08;;;17.80;99.90;;;;;;5022241;28;20480;-91
2022/04/28 10:43:34;;;;;;;3.50;2.70;;;17.70;99.90;;;;;;5034105;28;20490;-90
2022/04/28 10:46:24;;;;;;;2.80;2.60;;;17.80;99.90;;;;;;5019493;28;20518;-90
2022/04/28 10:49:00;;;;;;;3.88;2.88;;;17.90;99.90;;;;;;5021305;28;20421;-90
2022/04/28 10:51:30;;;;;;;3.45;2.55;;;17.90;99.90;;;;;;5026478;28;20417;-91
2022/04/28 10:54:02;;;;;;;2.47;2.28;;;17.80;99.90;;;;;;5026709;28;20392;-90
2022/04/28 10:56:39;;;;;;;3.53;2.90;;;17.80;99.90;;;;;;5025466;28;20383;-90
2022/04/28 10:59:25;;;;;;;2.90;2.70;;;17.80;99.90;;;;;;4999963;28;20451;-91
2022/04/28 11:01:51;;;;;;;2.45;2.25;;;17.90;99.90;;;;;;5014460;28;20511;-90
2022/04/28 11:04:21;;;;;;;2.90;2.60;;;18.00;99.90;;;;;;5033840;28;20888;-90
2022/04/28 11:06:52;;;;;;;2.43;2.23;;;18.20;99.90;;;;;;5023357;28;20472;-92
2022/04/28 11:09:32;;;;;;;3.50;2.50;;;18.50;99.90;;;;;;5012865;28;20385;-90
2022/04/28 11:12:07;;;;;;;2.80;2.60;;;18.80;99.90;;;;;;5024390;28;20489;-90
2022/04/28 11:14:48;;;;;;;2.70;2.47;;;18.60;99.90;;;;;;5017637;28;20865;-90
2022/04/28 11:17:17;;;;;;;2.70;2.50;;;18.40;99.90;;;;;;5033475;28;20390;-89
2022/04/28 11:19:44;;;;;;;2.73;2.53;;;18.40;99.90;;;;;;5019348;28;20391;-91
2022/04/28 11:22:13;;;;;;;2.38;2.17;;;18.50;99.90;;;;;;5033221;28;20394;-91
2022/04/28 11:24:47;;;;;;;2.60;2.40;;;18.50;99.90;;;;;;5019074;28;20400;-91
2022/04/28 11:27:19;;;;;;;4.07;2.08;;;18.60;99.90;;;;;;5028138;28;20389;-91
2022/04/28 11:29:46;;;;;;;3.15;2.30;;;18.80;99.90;;;;;;5009250;28;20393;-88
2022/04/28 11:32:13;;;;;;;2.58;2.38;;;18.80;99.90;;;;;;5024934;28;20411;-89
2022/04/28 11:34:39;;;;;;;2.53;2.33;;;18.70;99.90;;;;;;5039446;28;20414;-89
2022/04/28 11:37:16;;;;;;;2.65;2.45;;;18.70;99.90;;;;;;5035320;28;20884;-89
2022/04/28 11:39:46;;;;;;;3.10;2.10;;;18.80;99.90;;;;;;5017712;28;20823;-90
2022/04/28 11:42:13;;;;;;;2.70;2.50;;;19.00;99.90;;;;;;5032385;28;20399;-89
2022/04/28 11:44:59;;;;;;;3.00;2.30;;;18.90;99.90;;;;;;5027333;28;20388;-90
2022/04/28 11:47:26;;;;;;;6.43;3.65;;;18.90;99.90;;;;;;5012204;28;20869;-89
2022/04/28 11:50:01;;;;;;;2.90;2.15;;;18.90;99.90;;;;;;5007803;28;20892;-89
2022/04/28 11:52:29;;;;;;;3.85;2.42;;;19.10;99.90;;;;;;5032230;28;20411;-91
2022/04/28 11:55:01;;;;;;;5.93;3.35;;;19.20;99.70;;;;;;5032438;28;20395;-90
2022/04/28 11:57:27;;;;;;;2.50;2.30;;;19.40;98.90;;;;;;5020582;28;20472;-89
2022/04/28 11:59:53;;;;;;;2.50;2.30;;;19.20;98.80;;;;;;5013074;28;20412;-89
2022/04/28 12:02:34;;;;;;;2.40;2.20;;;19.20;98.80;;;;;;5015314;28;20384;-90
2022/04/28 12:05:06;;;;;;;2.30;2.08;;;18.90;98.60;;;;;;5017744;28;20388;-89
2022/04/28 12:07:34;;;;;;;3.65;3.17;;;19.00;98.90;;;;;;5015118;28;20388;-89
2022/04/28 12:15:32;;;;;;;3.00;2.10;;;19.50;98.70;;;;;;5008243;28;20427;-90
2022/04/28 12:21:02;;;;;;;2.45;2.28;;;19.70;99.90;;;;;;5017195;28;20479;-89
2022/04/28 12:23:50;;;;;;;3.50;2.30;;;19.90;97.70;;;;;;5017994;28;20420;-89
2022/04/28 12:26:19;;;;;;;2.50;2.30;;;19.70;97.80;;;;;;5012458;28;20403;-89
2022/04/28 12:28:45;;;;;;;2.60;2.40;;;19.70;98.10;;;;;;5014675;28;20527;-90
2022/04/28 12:31:15;;;;;;;2.20;2.00;;;19.20;98.00;;;;;;5012838;28;20384;-89
2022/04/28 12:33:45;;;;;;;3.53;2.30;;;19.30;97.60;;;;;;5009539;28;20390;-88
2022/04/28 12:36:14;;;;;;;2.40;2.20;;;19.30;96.80;;;;;;5014315;28;20399;-88
2022/04/28 12:38:49;;;;;;;3.13;2.50;;;19.30;97.60;;;;;;5013770;28;20723;-90
2022/04/28 12:41:21;;;;;;;2.40;2.20;;;19.60;97.10;;;;;;5013819;28;20393;-88
2022/04/28 12:43:49;;;;;;;3.83;2.47;;;19.90;98.80;;;;;;5015289;28;20431;-89
2022/04/28 12:46:18;;;;;;;2.50;2.30;;;19.90;97.20;;;;;;5013948;28;20455;-89
2022/04/28 12:48:53;;;;;;;2.42;2.22;;;20.00;97.10;;;;;;5011790;28;20966;-90
2022/04/28 12:51:21;;;;;;;2.10;1.90;;;20.00;97.30;;;;;;5013959;28;20387;-89
2022/04/28 12:53:51;;;;;;;2.40;2.20;;;20.20;97.30;;;;;;5017085;28;20395;-89
2022/04/28 12:56:38;;;;;;;2.53;2.33;;;19.80;95.80;;;;;;5016468;28;20891;-88
2022/04/28 12:59:05;;;;;;;2.83;1.90;;;19.70;96.20;;;;;;5013637;28;20405;-89
2022/04/28 13:01:33;;;;;;;2.35;2.10;;;19.90;96.60;;;;;;5015106;28;20487;-89
2022/04/28 13:04:02;;;;;;;2.47;2.27;;;20.00;97.60;;;;;;5011355;28;20432;-89
2022/04/28 13:06:30;;;;;;;2.22;2.03;;;20.10;95.40;;;;;;5015590;28;20419;-88
2022/04/28 13:09:01;;;;;;;2.60;2.30;;;19.90;95.70;;;;;;5013196;28;20381;-88
2022/04/28 13:11:32;;;;;;;2.40;2.15;;;19.90;95.80;;;;;;5010975;28;20389;-88
2022/04/28 13:13:59;;;;;;;2.47;2.28;;;19.80;96.10;;;;;;5013226;28;20400;-88
2022/04/28 13:16:25;;;;;;;2.90;2.70;;;19.80;96.10;;;;;;5014051;28;20389;-89
2022/04/28 13:18:52;;;;;;;2.90;2.70;;;19.70;95.60;;;;;;5013712;28;20480;-89